sensor_id;sensor_type;location;lat;lon;timestamp;P1;durP1;ratioP1;P2;durP2;ratioP2
41456;SDS011;27197;51.752;5.220;2022-08-19T00:03:21;2.60;;;1.75;;
41456;SDS011;27197;51.752;5.220;2022-08-19T00:05:51;2.10;;;1.65;;
41456;SDS011;27197;51.752;5.220;2022-08-19T00:08:22;3.20;;;2.10;;
41456;SDS011;27197;51.752;5.220;2022-08-19T00:10:53;2.90;;;2.20;;
41456;SDS011;27197;51.752;5.220;2022-08-19T00:13:22;2.95;;;2.22;;
41456;SDS011;27197;51.752;5.220;2022-08-19T00:15:54;2.00;;;1.77;;
41456;SDS011;27197;51.752;5.220;2022-08-19T00:18:24;2.85;;;2.15;;
41456;SDS011;27197;51.752;5.220;2022-08-19T00:20:56;2.50;;;2.02;;
41456;SDS011;27197;51.752;5.220;2022-08-19T00:23:27;2.83;;;1.85;;
41456;SDS011;27197;51.752;5.220;2022-08-19T00:26:02;3.05;;;2.30;;
41456;SDS011;27197;51.752;5.220;2022-08-19T00:28:33;2.70;;;2.10;;
41456;SDS011;27197;51.752;5.220;2022-08-19T00:31:07;3.22;;;1.90;;
41456;SDS011;27197;51.752;5.220;2022-08-19T00:33:37;2.42;;;1.90;;
41456;SDS011;27197;51.752;5.220;2022-08-19T00:36:07;2.80;;;2.25;;
41456;SDS011;27197;51.752;5.220;2022-08-19T00:38:39;2.50;;;1.80;;
41456;SDS011;27197;51.752;5.220;2022-08-19T00:41:12;2.58;;;1.80;;
41456;SDS011;27197;51.752;5.220;2022-08-19T00:43:42;2.95;;;2.20;;
41456;SDS011;27197;51.752;5.220;2022-08-19T00:46:14;2.67;;;2.12;;
41456;SDS011;27197;51.752;5.220;2022-08-19T00:48:44;2.72;;;2.08;;
41456;SDS011;27197;51.752;5.220;2022-08-19T00:51:13;4.83;;;4.05;;
41456;SDS011;27197;51.752;5.220;2022-08-19T00:53:44;4.22;;;3.80;;
41456;SDS011;27197;51.752;5.220;2022-08-19T00:56:15;3.87;;;3.08;;
41456;SDS011;27197;51.752;5.220;2022-08-19T00:58:50;2.62;;;1.90;;
41456;SDS011;27197;51.752;5.220;2022-08-19T01:01:20;2.62;;;2.27;;
41456;SDS011;27197;51.752;5.220;2022-08-19T01:03:52;2.80;;;1.87;;
41456;SDS011;27197;51.752;5.220;2022-08-19T01:06:25;3.42;;;2.10;;
41456;SDS011;27197;51.752;5.220;2022-08-19T01:08:58;2.77;;;2.20;;
41456;SDS011;27197;51.752;5.220;2022-08-19T01:11:36;2.80;;;2.02;;
41456;SDS011;27197;51.752;5.220;2022-08-19T01:14:05;3.00;;;1.98;;
41456;SDS011;27197;51.752;5.220;2022-08-19T01:16:37;2.17;;;1.80;;
41456;SDS011;27197;51.752;5.220;2022-08-19T01:19:15;2.40;;;1.90;;
41456;SDS011;27197;51.752;5.220;2022-08-19T01:21:49;3.80;;;2.87;;
41456;SDS011;27197;51.752;5.220;2022-08-19T01:24:25;3.12;;;2.30;;
41456;SDS011;27197;51.752;5.220;2022-08-19T01:27:08;19.75;;;16.27;;
41456;SDS011;27197;51.752;5.220;2022-08-19T01:29:38;4.83;;;4.05;;
41456;SDS011;27197;51.752;5.220;2022-08-19T01:32:07;2.80;;;2.17;;
41456;SDS011;27197;51.752;5.220;2022-08-19T01:34:42;3.00;;;2.20;;
41456;SDS011;27197;51.752;5.220;2022-08-19T01:37:13;2.80;;;2.08;;
41456;SDS011;27197;51.752;5.220;2022-08-19T01:39:47;2.37;;;2.08;;
41456;SDS011;27197;51.752;5.220;2022-08-19T01:42:17;2.90;;;2.42;;
41456;SDS011;27197;51.752;5.220;2022-08-19T01:44:47;2.80;;;2.05;;
41456;SDS011;27197;51.752;5.220;2022-08-19T01:47:18;10.38;;;8.85;;
41456;SDS011;27197;51.752;5.220;2022-08-19T01:49:48;10.50;;;8.30;;
41456;SDS011;27197;51.752;5.220;2022-08-19T01:52:17;3.42;;;2.67;;
41456;SDS011;27197;51.752;5.220;2022-08-19T01:54:47;3.92;;;2.83;;
41456;SDS011;27197;51.752;5.220;2022-08-19T01:57:18;11.05;;;9.53;;
41456;SDS011;27197;51.752;5.220;2022-08-19T01:59:51;3.67;;;3.27;;
41456;SDS011;27197;51.752;5.220;2022-08-19T02:02:22;4.00;;;2.90;;
41456;SDS011;27197;51.752;5.220;2022-08-19T02:04:50;2.95;;;2.42;;
41456;SDS011;27197;51.752;5.220;2022-08-19T02:07:22;2.50;;;2.30;;
41456;SDS011;27197;51.752;5.220;2022-08-19T02:09:54;3.10;;;2.52;;
41456;SDS011;27197;51.752;5.220;2022-08-19T02:12:23;4.87;;;3.98;;
41456;SDS011;27197;51.752;5.220;2022-08-19T02:14:53;12.55;;;10.35;;
41456;SDS011;27197;51.752;5.220;2022-08-19T02:17:23;4.55;;;3.77;;
41456;SDS011;27197;51.752;5.220;2022-08-19T02:19:54;3.12;;;2.83;;
41456;SDS011;27197;51.752;5.220;2022-08-19T02:22:26;3.27;;;2.35;;
41456;SDS011;27197;51.752;5.220;2022-08-19T02:24:57;2.80;;;2.35;;
41456;SDS011;27197;51.752;5.220;2022-08-19T02:27:29;3.70;;;2.70;;
41456;SDS011;27197;51.752;5.220;2022-08-19T02:29:59;2.77;;;2.12;;
41456;SDS011;27197;51.752;5.220;2022-08-19T02:32:31;3.45;;;2.60;;
41456;SDS011;27197;51.752;5.220;2022-08-19T02:35:03;3.05;;;2.20;;
41456;SDS011;27197;51.752;5.220;2022-08-19T02:37:34;2.77;;;2.30;;
41456;SDS011;27197;51.752;5.220;2022-08-19T02:40:20;3.45;;;2.70;;
41456;SDS011;27197;51.752;5.220;2022-08-19T02:42:52;3.83;;;2.45;;
41456;SDS011;27197;51.752;5.220;2022-08-19T02:45:24;3.40;;;2.75;;
41456;SDS011;27197;51.752;5.220;2022-08-19T02:47:56;3.35;;;2.42;;
41456;SDS011;27197;51.752;5.220;2022-08-19T02:50:26;2.83;;;2.30;;
41456;SDS011;27197;51.752;5.220;2022-08-19T02:52:56;2.85;;;2.05;;
41456;SDS011;27197;51.752;5.220;2022-08-19T02:55:28;3.10;;;2.65;;
41456;SDS011;27197;51.752;5.220;2022-08-19T02:57:58;3.00;;;2.50;;
41456;SDS011;27197;51.752;5.220;2022-08-19T03:00:32;2.60;;;2.40;;
41456;SDS011;27197;51.752;5.220;2022-08-19T03:03:03;4.00;;;2.27;;
41456;SDS011;27197;51.752;5.220;2022-08-19T03:05:34;3.85;;;2.75;;
41456;SDS011;27197;51.752;5.220;2022-08-19T03:08:05;2.80;;;2.30;;
41456;SDS011;27197;51.752;5.220;2022-08-19T03:10:47;2.72;;;1.90;;
41456;SDS011;27197;51.752;5.220;2022-08-19T03:13:11;3.65;;;2.25;;
41456;SDS011;27197;51.752;5.220;2022-08-19T03:15:44;2.65;;;2.33;;
41456;SDS011;27197;51.752;5.220;2022-08-19T03:18:17;12.95;;;9.43;;
41456;SDS011;27197;51.752;5.220;2022-08-19T03:20:50;4.22;;;3.27;;
41456;SDS011;27197;51.752;5.220;2022-08-19T03:23:21;3.50;;;2.67;;
41456;SDS011;27197;51.752;5.220;2022-08-19T03:25:55;3.10;;;2.20;;
41456;SDS011;27197;51.752;5.220;2022-08-19T03:28:26;8.80;;;5.72;;
41456;SDS011;27197;51.752;5.220;2022-08-19T03:30:58;13.20;;;10.43;;
41456;SDS011;27197;51.752;5.220;2022-08-19T03:33:31;7.33;;;6.33;;
41456;SDS011;27197;51.752;5.220;2022-08-19T03:36:21;6.95;;;5.65;;
41456;SDS011;27197;51.752;5.220;2022-08-19T03:38:52;2.95;;;2.47;;
41456;SDS011;27197;51.752;5.220;2022-08-19T03:41:25;3.80;;;2.50;;
41456;SDS011;27197;51.752;5.220;2022-08-19T03:43:59;14.63;;;11.45;;
41456;SDS011;27197;51.752;5.220;2022-08-19T03:46:31;4.72;;;3.70;;
41456;SDS011;27197;51.752;5.220;2022-08-19T03:49:04;3.55;;;2.50;;
41456;SDS011;27197;51.752;5.220;2022-08-19T03:51:35;2.92;;;2.12;;
41456;SDS011;27197;51.752;5.220;2022-08-19T03:54:08;3.47;;;2.62;;
41456;SDS011;27197;51.752;5.220;2022-08-19T03:56:42;3.10;;;2.30;;
41456;SDS011;27197;51.752;5.220;2022-08-19T03:59:14;2.62;;;2.30;;
41456;SDS011;27197;51.752;5.220;2022-08-19T04:01:44;2.80;;;2.20;;
41456;SDS011;27197;51.752;5.220;2022-08-19T04:04:16;16.60;;;13.20;;
41456;SDS011;27197;51.752;5.220;2022-08-19T04:06:46;14.15;;;10.53;;
41456;SDS011;27197;51.752;5.220;2022-08-19T04:09:18;20.57;;;16.50;;
41456;SDS011;27197;51.752;5.220;2022-08-19T04:11:52;17.92;;;13.38;;
41456;SDS011;27197;51.752;5.220;2022-08-19T04:14:24;4.95;;;3.98;;
41456;SDS011;27197;51.752;5.220;2022-08-19T04:16:55;15.18;;;11.22;;
41456;SDS011;27197;51.752;5.220;2022-08-19T04:19:29;8.65;;;6.92;;
41456;SDS011;27197;51.752;5.220;2022-08-19T04:22:02;17.62;;;13.25;;
41456;SDS011;27197;51.752;5.220;2022-08-19T04:24:34;23.80;;;17.70;;
41456;SDS011;27197;51.752;5.220;2022-08-19T04:27:06;4.97;;;3.95;;
41456;SDS011;27197;51.752;5.220;2022-08-19T04:29:36;5.40;;;3.25;;
41456;SDS011;27197;51.752;5.220;2022-08-19T04:32:08;21.27;;;16.15;;
41456;SDS011;27197;51.752;5.220;2022-08-19T04:34:37;4.80;;;3.37;;
41456;SDS011;27197;51.752;5.220;2022-08-19T04:37:08;15.18;;;10.78;;
41456;SDS011;27197;51.752;5.220;2022-08-19T04:39:39;15.90;;;12.03;;
41456;SDS011;27197;51.752;5.220;2022-08-19T04:42:27;5.58;;;4.22;;
41456;SDS011;27197;51.752;5.220;2022-08-19T04:45:08;17.48;;;13.40;;
41456;SDS011;27197;51.752;5.220;2022-08-19T04:47:41;19.48;;;13.58;;
41456;SDS011;27197;51.752;5.220;2022-08-19T04:50:13;9.18;;;7.15;;
41456;SDS011;27197;51.752;5.220;2022-08-19T04:52:45;33.33;;;24.70;;
41456;SDS011;27197;51.752;5.220;2022-08-19T04:55:21;16.20;;;11.88;;
41456;SDS011;27197;51.752;5.220;2022-08-19T04:57:51;21.77;;;16.52;;
41456;SDS011;27197;51.752;5.220;2022-08-19T05:00:22;31.68;;;23.42;;
41456;SDS011;27197;51.752;5.220;2022-08-19T05:02:52;4.37;;;3.75;;
41456;SDS011;27197;51.752;5.220;2022-08-19T05:05:24;8.95;;;7.17;;
41456;SDS011;27197;51.752;5.220;2022-08-19T05:07:56;32.88;;;23.22;;
41456;SDS011;27197;51.752;5.220;2022-08-19T05:10:27;16.57;;;12.07;;
41456;SDS011;27197;51.752;5.220;2022-08-19T05:13:01;23.02;;;17.05;;
41456;SDS011;27197;51.752;5.220;2022-08-19T05:15:32;28.75;;;21.07;;
41456;SDS011;27197;51.752;5.220;2022-08-19T05:18:01;7.95;;;5.80;;
41456;SDS011;27197;51.752;5.220;2022-08-19T05:20:47;18.82;;;14.40;;
41456;SDS011;27197;51.752;5.220;2022-08-19T05:23:36;19.00;;;14.28;;
41456;SDS011;27197;51.752;5.220;2022-08-19T05:26:06;8.68;;;6.45;;
41456;SDS011;27197;51.752;5.220;2022-08-19T05:28:35;8.05;;;6.40;;
41456;SDS011;27197;51.752;5.220;2022-08-19T05:31:07;20.92;;;15.00;;
41456;SDS011;27197;51.752;5.220;2022-08-19T05:33:39;34.08;;;23.42;;
41456;SDS011;27197;51.752;5.220;2022-08-19T05:36:11;15.10;;;11.65;;
41456;SDS011;27197;51.752;5.220;2022-08-19T05:38:42;14.00;;;10.32;;
41456;SDS011;27197;51.752;5.220;2022-08-19T05:41:13;17.12;;;12.13;;
41456;SDS011;27197;51.752;5.220;2022-08-19T05:43:49;13.80;;;10.50;;
41456;SDS011;27197;51.752;5.220;2022-08-19T05:46:19;23.62;;;17.12;;
41456;SDS011;27197;51.752;5.220;2022-08-19T05:48:51;35.28;;;23.15;;
41456;SDS011;27197;51.752;5.220;2022-08-19T05:51:22;11.63;;;8.80;;
41456;SDS011;27197;51.752;5.220;2022-08-19T05:53:55;11.15;;;8.30;;
41456;SDS011;27197;51.752;5.220;2022-08-19T05:56:27;6.25;;;4.55;;
41456;SDS011;27197;51.752;5.220;2022-08-19T05:58:58;28.62;;;20.12;;
41456;SDS011;27197;51.752;5.220;2022-08-19T06:01:29;23.00;;;15.68;;
41456;SDS011;27197;51.752;5.220;2022-08-19T06:04:02;9.65;;;6.45;;
41456;SDS011;27197;51.752;5.220;2022-08-19T06:06:35;18.62;;;13.72;;
41456;SDS011;27197;51.752;5.220;2022-08-19T06:09:08;29.25;;;21.23;;
41456;SDS011;27197;51.752;5.220;2022-08-19T06:11:41;32.95;;;22.85;;
41456;SDS011;27197;51.752;5.220;2022-08-19T06:14:15;30.70;;;22.95;;
41456;SDS011;27197;51.752;5.220;2022-08-19T06:16:48;7.95;;;6.33;;
41456;SDS011;27197;51.752;5.220;2022-08-19T06:19:20;21.33;;;15.68;;
41456;SDS011;27197;51.752;5.220;2022-08-19T06:21:51;31.30;;;22.75;;
41456;SDS011;27197;51.752;5.220;2022-08-19T06:24:22;14.47;;;11.08;;
41456;SDS011;27197;51.752;5.220;2022-08-19T06:26:55;32.60;;;22.13;;
41456;SDS011;27197;51.752;5.220;2022-08-19T06:29:28;11.50;;;7.83;;
41456;SDS011;27197;51.752;5.220;2022-08-19T06:31:58;31.90;;;20.70;;
41456;SDS011;27197;51.752;5.220;2022-08-19T06:34:32;37.53;;;25.25;;
41456;SDS011;27197;51.752;5.220;2022-08-19T06:37:04;35.25;;;22.50;;
41456;SDS011;27197;51.752;5.220;2022-08-19T06:39:40;38.17;;;24.45;;
41456;SDS011;27197;51.752;5.220;2022-08-19T06:42:11;19.48;;;12.68;;
41456;SDS011;27197;51.752;5.220;2022-08-19T06:44:42;17.17;;;11.03;;
41456;SDS011;27197;51.752;5.220;2022-08-19T06:47:16;42.90;;;26.40;;
41456;SDS011;27197;51.752;5.220;2022-08-19T06:49:48;22.60;;;15.23;;
41456;SDS011;27197;51.752;5.220;2022-08-19T06:52:20;33.83;;;21.12;;
41456;SDS011;27197;51.752;5.220;2022-08-19T06:54:51;16.48;;;10.82;;
41456;SDS011;27197;51.752;5.220;2022-08-19T06:57:22;49.53;;;27.37;;
41456;SDS011;27197;51.752;5.220;2022-08-19T06:59:52;22.45;;;15.08;;
41456;SDS011;27197;51.752;5.220;2022-08-19T07:02:22;35.75;;;23.73;;
41456;SDS011;27197;51.752;5.220;2022-08-19T07:04:55;36.70;;;23.55;;
41456;SDS011;27197;51.752;5.220;2022-08-19T07:07:25;37.98;;;24.52;;
41456;SDS011;27197;51.752;5.220;2022-08-19T07:09:55;23.30;;;14.95;;
41456;SDS011;27197;51.752;5.220;2022-08-19T07:12:27;38.23;;;24.40;;
41456;SDS011;27197;51.752;5.220;2022-08-19T07:14:58;16.80;;;10.55;;
41456;SDS011;27197;51.752;5.220;2022-08-19T07:17:28;7.85;;;5.22;;
41456;SDS011;27197;51.752;5.220;2022-08-19T07:19:59;16.97;;;11.40;;
41456;SDS011;27197;51.752;5.220;2022-08-19T07:22:32;16.17;;;11.00;;
41456;SDS011;27197;51.752;5.220;2022-08-19T07:25:07;19.98;;;12.58;;
41456;SDS011;27197;51.752;5.220;2022-08-19T07:27:37;8.08;;;5.60;;
41456;SDS011;27197;51.752;5.220;2022-08-19T07:30:09;12.55;;;7.75;;
41456;SDS011;27197;51.752;5.220;2022-08-19T07:32:41;34.35;;;22.20;;
41456;SDS011;27197;51.752;5.220;2022-08-19T07:35:15;31.57;;;20.80;;
41456;SDS011;27197;51.752;5.220;2022-08-19T07:37:45;14.15;;;9.23;;
41456;SDS011;27197;51.752;5.220;2022-08-19T07:40:16;36.55;;;21.50;;
41456;SDS011;27197;51.752;5.220;2022-08-19T07:42:47;36.45;;;23.32;;
41456;SDS011;27197;51.752;5.220;2022-08-19T07:45:18;30.05;;;18.35;;
41456;SDS011;27197;51.752;5.220;2022-08-19T07:47:50;32.42;;;21.90;;
41456;SDS011;27197;51.752;5.220;2022-08-19T07:50:22;34.13;;;23.20;;
41456;SDS011;27197;51.752;5.220;2022-08-19T07:52:54;30.35;;;20.20;;
41456;SDS011;27197;51.752;5.220;2022-08-19T07:55:24;35.83;;;21.52;;
41456;SDS011;27197;51.752;5.220;2022-08-19T07:57:57;32.17;;;21.65;;
41456;SDS011;27197;51.752;5.220;2022-08-19T08:00:28;29.85;;;18.32;;
41456;SDS011;27197;51.752;5.220;2022-08-19T08:02:59;30.30;;;19.35;;
41456;SDS011;27197;51.752;5.220;2022-08-19T08:05:30;31.45;;;22.15;;
41456;SDS011;27197;51.752;5.220;2022-08-19T08:08:18;31.42;;;20.65;;
41456;SDS011;27197;51.752;5.220;2022-08-19T08:10:51;23.60;;;14.87;;
41456;SDS011;27197;51.752;5.220;2022-08-19T08:13:43;23.12;;;16.62;;
41456;SDS011;27197;51.752;5.220;2022-08-19T08:16:17;28.57;;;19.35;;
41456;SDS011;27197;51.752;5.220;2022-08-19T08:18:47;23.95;;;15.83;;
41456;SDS011;27197;51.752;5.220;2022-08-19T08:21:17;28.60;;;19.57;;
41456;SDS011;27197;51.752;5.220;2022-08-19T08:23:49;30.70;;;19.00;;
41456;SDS011;27197;51.752;5.220;2022-08-19T08:26:20;34.92;;;21.33;;
41456;SDS011;27197;51.752;5.220;2022-08-19T08:28:49;11.12;;;8.35;;
41456;SDS011;27197;51.752;5.220;2022-08-19T08:31:20;22.87;;;15.70;;
41456;SDS011;27197;51.752;5.220;2022-08-19T08:33:49;33.75;;;20.57;;
41456;SDS011;27197;51.752;5.220;2022-08-19T08:36:23;33.28;;;21.33;;
41456;SDS011;27197;51.752;5.220;2022-08-19T08:38:53;34.20;;;18.20;;
41456;SDS011;27197;51.752;5.220;2022-08-19T08:44:32;23.35;;;13.83;;
41456;SDS011;27197;51.752;5.220;2022-08-19T08:47:13;8.83;;;7.10;;
41456;SDS011;27197;51.752;5.220;2022-08-19T08:52:21;29.90;;;18.98;;
41456;SDS011;27197;51.752;5.220;2022-08-19T08:54:52;36.20;;;22.73;;
41456;SDS011;27197;51.752;5.220;2022-08-19T08:57:28;29.32;;;18.92;;
41456;SDS011;27197;51.752;5.220;2022-08-19T09:00:06;26.10;;;17.95;;
41456;SDS011;27197;51.752;5.220;2022-08-19T09:02:40;32.30;;;22.80;;
41456;SDS011;27197;51.752;5.220;2022-08-19T09:05:11;13.48;;;9.20;;
41456;SDS011;27197;51.752;5.220;2022-08-19T09:07:58;23.27;;;15.78;;
41456;SDS011;27197;51.752;5.220;2022-08-19T09:10:39;30.92;;;20.80;;
41456;SDS011;27197;51.752;5.220;2022-08-19T09:16:02;30.23;;;20.57;;
41456;SDS011;27197;51.752;5.220;2022-08-19T09:18:45;31.33;;;21.62;;
41456;SDS011;27197;51.752;5.220;2022-08-19T09:21:15;23.80;;;15.68;;
41456;SDS011;27197;51.752;5.220;2022-08-19T09:23:48;27.52;;;19.55;;
41456;SDS011;27197;51.752;5.220;2022-08-19T09:26:21;10.90;;;8.23;;
41456;SDS011;27197;51.752;5.220;2022-08-19T09:28:52;29.65;;;20.52;;
41456;SDS011;27197;51.752;5.220;2022-08-19T09:31:25;26.95;;;19.48;;
41456;SDS011;27197;51.752;5.220;2022-08-19T09:33:57;34.70;;;24.00;;
41456;SDS011;27197;51.752;5.220;2022-08-19T09:36:29;13.62;;;10.00;;
41456;SDS011;27197;51.752;5.220;2022-08-19T09:39:06;34.08;;;20.57;;
41456;SDS011;27197;51.752;5.220;2022-08-19T09:41:37;31.30;;;20.85;;
41456;SDS011;27197;51.752;5.220;2022-08-19T09:44:07;30.97;;;21.57;;
41456;SDS011;27197;51.752;5.220;2022-08-19T09:46:40;30.92;;;19.70;;
41456;SDS011;27197;51.752;5.220;2022-08-19T09:49:10;28.23;;;19.65;;
41456;SDS011;27197;51.752;5.220;2022-08-19T09:51:40;27.07;;;18.90;;
41456;SDS011;27197;51.752;5.220;2022-08-19T09:54:09;25.43;;;18.02;;
41456;SDS011;27197;51.752;5.220;2022-08-19T09:56:39;23.52;;;17.42;;
41456;SDS011;27197;51.752;5.220;2022-08-19T09:59:10;19.62;;;12.30;;
41456;SDS011;27197;51.752;5.220;2022-08-19T10:01:41;27.65;;;16.70;;
41456;SDS011;27197;51.752;5.220;2022-08-19T10:04:14;27.13;;;16.85;;
41456;SDS011;27197;51.752;5.220;2022-08-19T10:06:45;19.52;;;13.80;;
41456;SDS011;27197;51.752;5.220;2022-08-19T10:09:20;22.32;;;17.55;;
41456;SDS011;27197;51.752;5.220;2022-08-19T10:14:41;20.30;;;14.18;;
41456;SDS011;27197;51.752;5.220;2022-08-19T10:17:12;11.90;;;8.98;;
41456;SDS011;27197;51.752;5.220;2022-08-19T10:20:00;26.48;;;17.57;;
41456;SDS011;27197;51.752;5.220;2022-08-19T10:22:32;26.57;;;17.45;;
41456;SDS011;27197;51.752;5.220;2022-08-19T10:25:03;24.98;;;17.10;;
41456;SDS011;27197;51.752;5.220;2022-08-19T10:27:35;19.55;;;15.53;;
41456;SDS011;27197;51.752;5.220;2022-08-19T10:30:04;18.80;;;14.07;;
41456;SDS011;27197;51.752;5.220;2022-08-19T10:32:34;20.75;;;15.32;;
41456;SDS011;27197;51.752;5.220;2022-08-19T10:35:06;24.40;;;15.95;;
41456;SDS011;27197;51.752;5.220;2022-08-19T10:37:42;25.62;;;16.20;;
41456;SDS011;27197;51.752;5.220;2022-08-19T10:40:13;15.48;;;10.78;;
41456;SDS011;27197;51.752;5.220;2022-08-19T10:42:45;23.57;;;16.12;;
41456;SDS011;27197;51.752;5.220;2022-08-19T10:45:17;24.95;;;18.02;;
41456;SDS011;27197;51.752;5.220;2022-08-19T10:47:49;26.42;;;17.52;;
41456;SDS011;27197;51.752;5.220;2022-08-19T10:50:20;19.17;;;13.15;;
41456;SDS011;27197;51.752;5.220;2022-08-19T10:53:07;26.12;;;18.40;;
41456;SDS011;27197;51.752;5.220;2022-08-19T10:55:38;19.98;;;15.28;;
41456;SDS011;27197;51.752;5.220;2022-08-19T10:58:25;15.53;;;11.50;;
41456;SDS011;27197;51.752;5.220;2022-08-19T11:00:57;20.20;;;17.02;;
41456;SDS011;27197;51.752;5.220;2022-08-19T11:03:35;24.10;;;16.12;;
41456;SDS011;27197;51.752;5.220;2022-08-19T11:06:05;22.70;;;16.67;;
41456;SDS011;27197;51.752;5.220;2022-08-19T11:08:40;22.95;;;17.65;;
41456;SDS011;27197;51.752;5.220;2022-08-19T11:11:13;21.90;;;16.70;;
41456;SDS011;27197;51.752;5.220;2022-08-19T11:13:44;20.68;;;16.73;;
41456;SDS011;27197;51.752;5.220;2022-08-19T11:16:17;19.00;;;14.87;;
41456;SDS011;27197;51.752;5.220;2022-08-19T11:18:50;23.32;;;14.98;;
41456;SDS011;27197;51.752;5.220;2022-08-19T11:21:27;20.20;;;15.70;;
41456;SDS011;27197;51.752;5.220;2022-08-19T11:24:00;19.15;;;14.10;;
41456;SDS011;27197;51.752;5.220;2022-08-19T11:26:31;19.10;;;13.83;;
41456;SDS011;27197;51.752;5.220;2022-08-19T11:29:08;17.35;;;14.43;;
41456;SDS011;27197;51.752;5.220;2022-08-19T11:31:40;10.98;;;8.15;;
41456;SDS011;27197;51.752;5.220;2022-08-19T11:34:16;15.78;;;10.95;;
41456;SDS011;27197;51.752;5.220;2022-08-19T11:36:49;16.93;;;12.00;;
41456;SDS011;27197;51.752;5.220;2022-08-19T11:39:24;15.63;;;11.68;;
41456;SDS011;27197;51.752;5.220;2022-08-19T11:41:55;9.88;;;8.03;;
41456;SDS011;27197;51.752;5.220;2022-08-19T11:44:29;15.18;;;11.35;;
41456;SDS011;27197;51.752;5.220;2022-08-19T11:46:59;16.95;;;12.28;;
41456;SDS011;27197;51.752;5.220;2022-08-19T11:49:28;13.98;;;11.15;;
41456;SDS011;27197;51.752;5.220;2022-08-19T11:52:21;13.80;;;10.65;;
41456;SDS011;27197;51.752;5.220;2022-08-19T11:54:51;14.13;;;9.75;;
41456;SDS011;27197;51.752;5.220;2022-08-19T11:57:22;11.38;;;8.23;;
41456;SDS011;27197;51.752;5.220;2022-08-19T11:59:54;13.05;;;9.78;;
41456;SDS011;27197;51.752;5.220;2022-08-19T12:02:26;8.00;;;5.87;;
41456;SDS011;27197;51.752;5.220;2022-08-19T12:04:58;12.13;;;8.85;;
41456;SDS011;27197;51.752;5.220;2022-08-19T12:07:31;12.30;;;8.80;;
41456;SDS011;27197;51.752;5.220;2022-08-19T12:10:01;10.43;;;8.45;;
41456;SDS011;27197;51.752;5.220;2022-08-19T12:12:34;10.98;;;8.78;;
41456;SDS011;27197;51.752;5.220;2022-08-19T12:15:08;14.30;;;10.15;;
41456;SDS011;27197;51.752;5.220;2022-08-19T12:17:42;13.60;;;10.20;;
41456;SDS011;27197;51.752;5.220;2022-08-19T12:20:12;8.55;;;6.75;;
41456;SDS011;27197;51.752;5.220;2022-08-19T12:22:42;10.75;;;7.45;;
41456;SDS011;27197;51.752;5.220;2022-08-19T12:25:14;12.33;;;10.18;;
41456;SDS011;27197;51.752;5.220;2022-08-19T12:27:45;13.08;;;9.93;;
41456;SDS011;27197;51.752;5.220;2022-08-19T12:30:16;12.85;;;9.35;;
41456;SDS011;27197;51.752;5.220;2022-08-19T12:32:46;9.00;;;6.03;;
41456;SDS011;27197;51.752;5.220;2022-08-19T12:35:18;14.13;;;10.40;;
41456;SDS011;27197;51.752;5.220;2022-08-19T12:37:52;16.52;;;11.70;;
41456;SDS011;27197;51.752;5.220;2022-08-19T12:40:24;13.03;;;9.88;;
41456;SDS011;27197;51.752;5.220;2022-08-19T12:42:56;12.60;;;8.58;;
41456;SDS011;27197;51.752;5.220;2022-08-19T12:45:26;10.70;;;8.20;;
41456;SDS011;27197;51.752;5.220;2022-08-19T12:47:58;12.50;;;10.23;;
41456;SDS011;27197;51.752;5.220;2022-08-19T12:50:27;15.93;;;12.15;;
41456;SDS011;27197;51.752;5.220;2022-08-19T12:52:57;15.50;;;11.50;;
41456;SDS011;27197;51.752;5.220;2022-08-19T12:55:32;21.57;;;15.93;;
41456;SDS011;27197;51.752;5.220;2022-08-19T12:58:01;11.22;;;8.30;;
41456;SDS011;27197;51.752;5.220;2022-08-19T13:00:32;30.08;;;22.02;;
41456;SDS011;27197;51.752;5.220;2022-08-19T13:03:06;29.72;;;22.62;;
41456;SDS011;27197;51.752;5.220;2022-08-19T13:05:37;30.50;;;22.95;;
41456;SDS011;27197;51.752;5.220;2022-08-19T13:08:07;31.33;;;24.52;;
41456;SDS011;27197;51.752;5.220;2022-08-19T13:10:40;21.45;;;16.42;;
41456;SDS011;27197;51.752;5.220;2022-08-19T13:13:09;19.67;;;15.08;;
41456;SDS011;27197;51.752;5.220;2022-08-19T13:15:39;18.12;;;13.65;;
41456;SDS011;27197;51.752;5.220;2022-08-19T13:18:11;13.45;;;10.82;;
41456;SDS011;27197;51.752;5.220;2022-08-19T13:20:42;15.50;;;12.20;;
41456;SDS011;27197;51.752;5.220;2022-08-19T13:23:12;16.25;;;12.60;;
41456;SDS011;27197;51.752;5.220;2022-08-19T13:25:43;15.38;;;11.65;;
41456;SDS011;27197;51.752;5.220;2022-08-19T13:28:14;12.23;;;9.88;;
41456;SDS011;27197;51.752;5.220;2022-08-19T13:33:53;13.43;;;9.83;;
41456;SDS011;27197;51.752;5.220;2022-08-19T13:36:26;14.75;;;9.05;;
41456;SDS011;27197;51.752;5.220;2022-08-19T13:38:57;11.90;;;9.40;;
41456;SDS011;27197;51.752;5.220;2022-08-19T13:41:26;12.43;;;9.10;;
41456;SDS011;27197;51.752;5.220;2022-08-19T13:44:00;14.20;;;10.43;;
41456;SDS011;27197;51.752;5.220;2022-08-19T13:46:34;15.30;;;11.05;;
41456;SDS011;27197;51.752;5.220;2022-08-19T13:49:04;12.75;;;9.78;;
41456;SDS011;27197;51.752;5.220;2022-08-19T13:51:33;16.20;;;11.10;;
41456;SDS011;27197;51.752;5.220;2022-08-19T13:54:04;17.82;;;11.90;;
41456;SDS011;27197;51.752;5.220;2022-08-19T13:56:41;14.05;;;10.03;;
41456;SDS011;27197;51.752;5.220;2022-08-19T13:59:15;15.98;;;10.53;;
41456;SDS011;27197;51.752;5.220;2022-08-19T14:01:46;16.00;;;11.05;;
41456;SDS011;27197;51.752;5.220;2022-08-19T14:04:15;14.38;;;10.28;;
41456;SDS011;27197;51.752;5.220;2022-08-19T14:06:46;7.83;;;6.45;;
41456;SDS011;27197;51.752;5.220;2022-08-19T14:09:16;10.43;;;7.10;;
41456;SDS011;27197;51.752;5.220;2022-08-19T14:11:46;7.47;;;5.60;;
41456;SDS011;27197;51.752;5.220;2022-08-19T14:14:17;8.85;;;6.25;;
41456;SDS011;27197;51.752;5.220;2022-08-19T14:16:47;7.35;;;5.97;;
41456;SDS011;27197;51.752;5.220;2022-08-19T14:19:22;7.40;;;5.25;;
41456;SDS011;27197;51.752;5.220;2022-08-19T14:21:54;7.45;;;5.50;;
41456;SDS011;27197;51.752;5.220;2022-08-19T14:24:27;8.80;;;6.25;;
41456;SDS011;27197;51.752;5.220;2022-08-19T14:26:59;7.62;;;5.55;;
41456;SDS011;27197;51.752;5.220;2022-08-19T14:29:29;9.73;;;6.37;;
41456;SDS011;27197;51.752;5.220;2022-08-19T14:32:01;6.37;;;5.10;;
41456;SDS011;27197;51.752;5.220;2022-08-19T14:34:36;6.55;;;5.37;;
41456;SDS011;27197;51.752;5.220;2022-08-19T14:37:09;7.20;;;5.70;;
41456;SDS011;27197;51.752;5.220;2022-08-19T14:39:39;5.97;;;4.80;;
41456;SDS011;27197;51.752;5.220;2022-08-19T14:42:11;7.67;;;5.75;;
41456;SDS011;27197;51.752;5.220;2022-08-19T14:44:43;8.13;;;6.40;;
41456;SDS011;27197;51.752;5.220;2022-08-19T14:47:14;7.37;;;5.45;;
41456;SDS011;27197;51.752;5.220;2022-08-19T14:49:44;7.28;;;5.47;;
41456;SDS011;27197;51.752;5.220;2022-08-19T14:52:15;6.58;;;5.17;;
41456;SDS011;27197;51.752;5.220;2022-08-19T14:54:45;5.87;;;4.97;;
41456;SDS011;27197;51.752;5.220;2022-08-19T14:57:20;5.92;;;4.83;;
41456;SDS011;27197;51.752;5.220;2022-08-19T14:59:50;8.98;;;6.60;;
41456;SDS011;27197;51.752;5.220;2022-08-19T15:02:20;6.55;;;5.25;;
41456;SDS011;27197;51.752;5.220;2022-08-19T15:04:51;9.05;;;6.22;;
41456;SDS011;27197;51.752;5.220;2022-08-19T15:07:41;8.60;;;5.80;;
41456;SDS011;27197;51.752;5.220;2022-08-19T15:10:13;5.55;;;4.80;;
41456;SDS011;27197;51.752;5.220;2022-08-19T15:12:45;6.00;;;4.95;;
41456;SDS011;27197;51.752;5.220;2022-08-19T15:15:15;6.55;;;4.67;;
41456;SDS011;27197;51.752;5.220;2022-08-19T15:17:47;6.40;;;4.50;;
41456;SDS011;27197;51.752;5.220;2022-08-19T15:20:19;6.65;;;4.55;;